createdAt,value
2018-07-27T00:02:26.001Z,22.06
2018-07-27T00:05:23.461Z,22.08
2018-07-27T00:08:20.804Z,22.22
2018-07-27T00:11:18.484Z,22.27
2018-07-27T00:14:15.915Z,22.26
2018-07-27T00:17:13.416Z,22.26
2018-07-27T00:20:10.816Z,22.19
2018-07-27T00:23:08.637Z,22.09
2018-07-27T00:26:05.704Z,21.94
2018-07-27T00:29:03.136Z,21.72
2018-07-27T00:32:00.416Z,21.70
2018-07-27T00:34:57.720Z,21.68
2018-07-27T00:37:55.130Z,21.47
2018-07-27T00:40:53.100Z,21.64
2018-07-27T00:43:51.071Z,21.64
2018-07-27T00:46:48.940Z,21.66
2018-07-27T00:49:45.991Z,21.52
2018-07-27T00:52:43.256Z,21.53
2018-07-27T00:55:40.362Z,21.57
2018-07-27T00:58:38.491Z,21.61
2018-07-27T01:01:35.635Z,21.48
2018-07-27T01:04:33.732Z,21.48
2018-07-27T01:07:31.307Z,21.37
2018-07-27T01:10:28.744Z,21.31
2018-07-27T01:13:26.736Z,20.91
2018-07-27T01:16:23.814Z,21.00
2018-07-27T01:19:21.397Z,20.94
2018-07-27T01:22:18.672Z,21.06
2018-07-27T01:25:15.725Z,20.98
2018-07-27T01:28:12.854Z,20.94
2018-07-27T01:31:10.786Z,21.08
2018-07-27T01:34:07.939Z,21.08
2018-07-27T01:37:05.320Z,20.97
2018-07-27T01:40:02.904Z,21.11
2018-07-27T01:43:00.625Z,21.10
2018-07-27T01:45:57.886Z,20.98
2018-07-27T01:48:55.252Z,21.10
2018-07-27T01:51:52.899Z,20.99
2018-07-27T01:54:50.999Z,20.93
2018-07-27T01:57:48.456Z,20.88
2018-07-27T02:00:45.818Z,20.69
2018-07-27T02:03:43.534Z,20.72
2018-07-27T02:06:41.428Z,20.68
2018-07-27T02:09:39.466Z,20.57
2018-07-27T02:12:36.899Z,20.61
2018-07-27T02:15:34.955Z,20.61
2018-07-27T02:18:32.432Z,20.49
2018-07-27T02:21:30.132Z,20.41
2018-07-27T02:24:27.330Z,20.31
2018-07-27T02:27:24.318Z,20.23
2018-07-27T02:30:21.391Z,20.12
2018-07-27T02:33:18.886Z,19.93
2018-07-27T02:36:16.839Z,20.07
2018-07-27T02:39:14.044Z,20.20
2018-07-27T02:42:11.529Z,20.15
2018-07-27T02:45:08.859Z,19.80
2018-07-27T02:48:06.652Z,19.82
2018-07-27T02:51:03.788Z,19.63
2018-07-27T02:54:01.075Z,19.60
2018-07-27T02:56:58.303Z,19.63
2018-07-27T02:59:55.200Z,19.71
2018-07-27T03:02:53.234Z,19.72
2018-07-27T03:05:51.100Z,19.73
2018-07-27T03:08:48.052Z,19.77
2018-07-27T03:11:45.106Z,19.74
2018-07-27T03:14:42.467Z,19.78
2018-07-27T03:17:39.618Z,19.63
2018-07-27T03:20:37.488Z,19.53
2018-07-27T03:23:35.256Z,19.52
2018-07-27T03:26:33.244Z,19.41
2018-07-27T03:29:31.440Z,19.33
2018-07-27T03:32:29.371Z,19.32
2018-07-27T03:35:26.772Z,19.30
2018-07-27T03:38:23.976Z,19.35
2018-07-27T03:41:22.990Z,19.21
2018-07-27T03:44:21.181Z,18.93
2018-07-27T03:47:18.443Z,18.85
2018-07-27T03:50:15.615Z,18.81
2018-07-27T03:53:12.943Z,19.06
2018-07-27T03:56:10.226Z,19.48
2018-07-27T03:59:07.353Z,19.95
2018-07-27T04:02:04.641Z,20.35
2018-07-27T04:05:01.900Z,20.84
2018-07-27T04:07:59.276Z,20.69
2018-07-27T04:10:56.632Z,21.05
2018-07-27T04:13:54.548Z,21.15
2018-07-27T04:16:52.656Z,21.55
2018-07-27T04:19:49.703Z,22.02
2018-07-27T04:22:46.681Z,22.64
2018-07-27T04:25:43.911Z,23.19
2018-07-27T04:28:41.679Z,23.56
2018-07-27T04:31:39.482Z,23.83
2018-07-27T04:34:36.624Z,24.03
2018-07-27T04:37:33.744Z,24.45
2018-07-27T04:40:30.903Z,25.08
2018-07-27T04:43:28.720Z,25.90
2018-07-27T04:46:25.895Z,25.82
2018-07-27T04:49:23.190Z,26.21
2018-07-27T04:52:20.366Z,26.59
2018-07-27T04:55:18.015Z,27.19
2018-07-27T04:58:16.224Z,28.03
2018-07-27T05:01:13.552Z,28.87
2018-07-27T05:04:10.724Z,29.69
2018-07-27T05:07:08.384Z,29.85
2018-07-27T05:10:05.763Z,28.93
2018-07-27T05:13:03.913Z,29.31
2018-07-27T05:16:01.507Z,29.47
2018-07-27T05:18:59.067Z,30.51
2018-07-27T05:21:56.719Z,31.62
2018-07-27T05:24:54.894Z,31.59
2018-07-27T05:27:51.932Z,31.64
2018-07-27T05:30:49.307Z,32.74
2018-07-27T05:33:46.630Z,32.88
2018-07-27T05:36:43.902Z,33.46
2018-07-27T05:39:41.720Z,33.51
2018-07-27T05:42:39.679Z,33.46
2018-07-27T05:45:37.333Z,32.80
2018-07-27T05:48:34.697Z,33.29
2018-07-27T05:51:32.287Z,34.56
2018-07-27T05:54:30.230Z,34.39
2018-07-27T05:57:27.543Z,34.88
2018-07-27T06:00:24.524Z,34.86
2018-07-27T06:03:21.689Z,34.91
2018-07-27T06:06:19.064Z,35.34
2018-07-27T06:09:17.243Z,35.86
2018-07-27T06:12:14.763Z,35.85
2018-07-27T06:15:12.907Z,36.41
2018-07-27T06:18:10.075Z,36.44
2018-07-27T06:21:07.777Z,36.50
2018-07-27T06:24:05.022Z,37.53
2018-07-27T06:27:02.980Z,38.11
2018-07-27T06:30:00.097Z,37.06
2018-07-27T06:32:57.961Z,37.74
2018-07-27T06:35:56.045Z,37.09
2018-07-27T06:38:53.320Z,38.32
2018-07-27T06:41:50.387Z,38.57
2018-07-27T06:44:48.458Z,38.45
2018-07-27T06:47:45.594Z,37.81
2018-07-27T06:50:43.258Z,36.56
2018-07-27T06:53:40.622Z,36.89
2018-07-27T06:56:38.351Z,37.26
2018-07-27T06:59:35.980Z,36.34
2018-07-27T07:02:33.883Z,35.38
2018-07-27T07:05:31.324Z,35.02
2018-07-27T07:08:28.858Z,35.15
2018-07-27T07:11:26.226Z,36.00
2018-07-27T07:14:23.364Z,36.08
2018-07-27T07:17:20.737Z,35.74
2018-07-27T07:20:17.923Z,35.83
2018-07-27T07:23:15.668Z,35.47
2018-07-27T07:26:13.262Z,35.75
2018-07-27T07:29:10.890Z,36.39
2018-07-27T07:32:08.016Z,36.86
2018-07-27T07:35:05.213Z,36.27
2018-07-27T07:38:02.235Z,37.00
2018-07-27T07:40:59.439Z,37.62
2018-07-27T07:43:57.017Z,37.16
2018-07-27T07:46:54.008Z,38.81
2018-07-27T07:49:51.496Z,38.23
2018-07-27T07:52:48.749Z,38.38
2018-07-27T07:55:45.799Z,39.04
2018-07-27T07:58:43.184Z,39.42
2018-07-27T08:01:40.715Z,40.52
2018-07-27T08:04:38.554Z,40.01
2018-07-27T08:07:35.605Z,40.63
2018-07-27T08:10:33.704Z,40.66
2018-07-27T08:13:31.896Z,40.97
2018-07-27T08:16:29.911Z,39.45
2018-07-27T08:19:27.148Z,40.37
2018-07-27T08:22:24.340Z,39.88
2018-07-27T08:25:22.396Z,41.38
2018-07-27T08:28:31.588Z,41.19
2018-07-27T08:31:28.914Z,40.60
2018-07-27T08:34:26.435Z,41.57
2018-07-27T08:37:23.468Z,40.58
2018-07-27T08:40:20.860Z,40.75
2018-07-27T08:43:18.907Z,38.91
2018-07-27T08:46:16.293Z,39.18
2018-07-27T08:49:13.616Z,38.61
2018-07-27T08:52:10.988Z,40.22
2018-07-27T08:55:15.355Z,41.78
2018-07-27T08:58:12.492Z,40.53
2018-07-27T09:01:14.940Z,39.28
2018-07-27T09:04:12.141Z,39.15
2018-07-27T09:07:10.298Z,37.32
2018-07-27T09:10:07.591Z,37.44
2018-07-27T09:13:04.871Z,37.27
2018-07-27T09:16:02.933Z,37.61
2018-07-27T09:19:01.012Z,37.45
2018-07-27T09:21:58.312Z,38.04
2018-07-27T09:24:56.268Z,39.49
2018-07-27T09:27:53.972Z,39.30
2018-07-27T09:30:51.194Z,37.12
2018-07-27T09:33:48.485Z,37.02
2018-07-27T09:36:45.847Z,37.44
2018-07-27T09:39:43.105Z,39.10
2018-07-27T09:42:40.372Z,38.23
2018-07-27T09:45:37.792Z,37.67
2018-07-27T09:48:35.347Z,37.83
2018-07-27T09:51:32.459Z,37.27
2018-07-27T09:54:30.117Z,37.77
2018-07-27T09:57:27.275Z,37.59
2018-07-27T10:01:28.323Z,37.22
2018-07-27T10:04:25.870Z,38.52
2018-07-27T10:07:23.818Z,38.14
2018-07-27T10:10:21.849Z,37.41
2018-07-27T10:13:19.947Z,36.52
2018-07-27T10:16:17.410Z,35.84
2018-07-27T10:19:15.628Z,36.33
2018-07-27T10:22:12.976Z,36.54
2018-07-27T10:25:10.588Z,36.05
2018-07-27T10:28:08.097Z,35.34
2018-07-27T10:31:05.971Z,35.36
2018-07-27T10:34:04.077Z,35.88
2018-07-27T10:37:01.218Z,36.23
2018-07-27T10:39:59.228Z,36.82
2018-07-27T10:42:56.383Z,36.04
2018-07-27T10:45:53.523Z,36.34
2018-07-27T10:48:50.582Z,35.90
2018-07-27T10:51:48.256Z,35.84
2018-07-27T10:54:45.367Z,36.17
2018-07-27T10:57:42.436Z,36.50
2018-07-27T11:00:40.521Z,36.68
2018-07-27T11:03:38.380Z,36.53
2018-07-27T11:06:36.133Z,36.97
2018-07-27T11:09:33.453Z,37.49
2018-07-27T11:12:30.780Z,36.30
2018-07-27T11:15:27.871Z,36.23
2018-07-27T11:18:24.896Z,36.23
2018-07-27T11:21:21.868Z,37.09
2018-07-27T11:24:19.876Z,36.59
2018-07-27T11:27:17.987Z,35.95
2018-07-27T11:30:15.940Z,35.99
2018-07-27T11:33:13.943Z,35.90
2018-07-27T11:36:11.275Z,35.73
2018-07-27T11:39:08.748Z,34.81
2018-07-27T11:42:06.372Z,34.32
2018-07-27T11:45:03.968Z,33.59
2018-07-27T11:48:01.670Z,33.54
2018-07-27T11:50:59.792Z,33.70
2018-07-27T11:53:57.760Z,33.88
2018-07-27T11:56:55.499Z,33.82
2018-07-27T11:59:52.864Z,33.87
2018-07-27T12:02:50.705Z,33.54
2018-07-27T12:05:47.847Z,34.00
2018-07-27T12:08:45.216Z,33.98
2018-07-27T12:11:42.727Z,33.45
2018-07-27T12:14:40.277Z,33.40
2018-07-27T12:17:37.231Z,33.62
2018-07-27T12:20:34.609Z,33.72
2018-07-27T12:23:32.216Z,33.49
2018-07-27T12:26:29.788Z,33.41
2018-07-27T12:29:27.528Z,33.56
2018-07-27T12:32:24.955Z,33.63
2018-07-27T12:35:23.011Z,33.61
2018-07-27T12:38:21.076Z,33.71
2018-07-27T12:41:19.144Z,33.93
2018-07-27T12:44:16.824Z,34.10
2018-07-27T12:47:13.955Z,33.96
2018-07-27T12:50:11.460Z,33.66
2018-07-27T12:53:09.405Z,33.72
2018-07-27T12:56:07.768Z,33.46
2018-07-27T12:59:05.678Z,33.63
2018-07-27T13:02:03.523Z,34.16
2018-07-27T13:05:01.168Z,33.92
2018-07-27T13:07:59.008Z,34.05
2018-07-27T13:10:57.037Z,34.30
2018-07-27T13:13:54.398Z,34.06
2018-07-27T13:16:51.780Z,34.00
2018-07-27T13:19:49.578Z,34.22
2018-07-27T13:22:46.896Z,33.73
2018-07-27T13:25:44.464Z,33.97
2018-07-27T13:28:41.655Z,33.77
2018-07-27T13:32:12.340Z,33.92
2018-07-27T13:35:09.928Z,33.97
2018-07-27T13:38:07.853Z,33.94
2018-07-27T13:41:05.281Z,34.23
2018-07-27T13:44:03.299Z,33.84
2018-07-27T13:47:00.394Z,33.86
2018-07-27T13:49:58.423Z,33.71
2018-07-27T13:52:55.455Z,33.48
2018-07-27T13:56:01.785Z,33.53
2018-07-27T13:58:59.072Z,33.62
2018-07-27T14:01:57.269Z,33.71
2018-07-27T14:04:55.099Z,33.69
2018-07-27T14:07:52.131Z,33.91
2018-07-27T14:10:49.716Z,33.75
2018-07-27T14:13:47.764Z,33.62
2018-07-27T14:16:45.387Z,33.69
2018-07-27T14:19:42.954Z,33.76
2018-07-27T14:22:40.520Z,33.85
2018-07-27T14:25:38.155Z,33.71
2018-07-27T14:28:35.620Z,33.82
2018-07-27T14:31:32.833Z,33.82
2018-07-27T14:34:30.837Z,33.81
2018-07-27T14:37:28.047Z,33.88
2018-07-27T14:40:25.371Z,34.01
2018-07-27T14:43:23.472Z,33.98
2018-07-27T14:46:21.639Z,33.77
2018-07-27T14:49:19.874Z,33.79
2018-07-27T14:52:17.514Z,33.67
2018-07-27T14:55:14.924Z,33.56
2018-07-27T14:58:13.530Z,33.64
2018-07-27T15:01:11.208Z,33.69
2018-07-27T15:04:08.321Z,33.82
2018-07-27T15:07:05.427Z,33.78
2018-07-27T15:10:03.399Z,33.82
2018-07-27T15:13:01.547Z,34.07
2018-07-27T15:15:58.957Z,34.00
2018-07-27T15:18:56.590Z,33.90
2018-07-27T15:21:54.520Z,33.71
2018-07-27T15:24:52.408Z,33.77
2018-07-27T15:27:49.960Z,33.60
2018-07-27T15:30:47.167Z,33.65
2018-07-27T15:33:44.295Z,33.46
2018-07-27T15:36:42.048Z,33.53
2018-07-27T15:39:39.464Z,33.47
2018-07-27T15:42:37.319Z,33.37
2018-07-27T15:45:34.556Z,33.56
2018-07-27T15:48:31.833Z,33.56
2018-07-27T15:51:29.432Z,33.59
2018-07-27T15:54:27.499Z,33.70
2018-07-27T15:57:24.793Z,33.65
2018-07-27T16:00:22.374Z,33.57
2018-07-27T16:03:20.243Z,33.57
2018-07-27T16:06:17.591Z,33.46
2018-07-27T16:09:16.030Z,33.46
2018-07-27T16:12:13.439Z,33.61
2018-07-27T16:15:10.384Z,33.73
2018-07-27T16:18:08.356Z,33.64
2018-07-27T16:21:05.514Z,33.46
2018-07-27T16:24:03.516Z,33.50
2018-07-27T16:27:01.315Z,33.38
2018-07-27T16:29:59.031Z,33.36
2018-07-27T16:32:57.095Z,33.47
2018-07-27T16:35:55.209Z,33.43
2018-07-27T16:38:52.782Z,33.33
2018-07-27T16:41:50.409Z,33.38
2018-07-27T16:44:47.473Z,33.41
2018-07-27T16:47:44.932Z,33.25
2018-07-27T16:50:42.359Z,33.13
2018-07-27T16:53:39.678Z,33.21
2018-07-27T16:56:37.208Z,33.18
2018-07-27T16:59:34.416Z,33.16
2018-07-27T17:02:32.142Z,32.93
2018-07-27T17:05:29.314Z,32.85
2018-07-27T17:08:27.075Z,32.85
2018-07-27T17:11:24.685Z,32.80
2018-07-27T17:14:22.358Z,32.71
2018-07-27T17:17:19.690Z,32.63
2018-07-27T17:20:17.563Z,32.57
2018-07-27T17:23:15.292Z,32.48
2018-07-27T17:26:12.597Z,32.45
2018-07-27T17:29:10.655Z,32.40
2018-07-27T17:32:08.626Z,32.32
2018-07-27T17:35:06.531Z,32.22
2018-07-27T17:38:03.996Z,32.13
2018-07-27T17:41:01.724Z,32.09
2018-07-27T17:43:58.995Z,32.04
2018-07-27T17:46:56.960Z,32.03
2018-07-27T17:49:53.932Z,31.99
2018-07-27T17:52:51.153Z,31.89
2018-07-27T17:55:49.083Z,31.87
2018-07-27T17:58:46.905Z,31.82
2018-07-27T18:01:44.155Z,31.79
2018-07-27T18:04:41.597Z,31.73
2018-07-27T18:07:39.377Z,31.66
2018-07-27T18:10:36.972Z,31.57
2018-07-27T18:13:34.755Z,31.51
2018-07-27T18:16:31.800Z,31.43
2018-07-27T18:19:29.572Z,31.40
2018-07-27T18:22:27.290Z,31.39
2018-07-27T18:25:25.631Z,31.26
2018-07-27T18:28:23.628Z,31.15
2018-07-27T18:31:21.887Z,31.12
2018-07-27T18:34:20.016Z,31.04
2018-07-27T18:37:18.239Z,31.01
2018-07-27T18:40:16.596Z,30.97
2018-07-27T18:43:14.314Z,30.85
2018-07-27T18:46:11.969Z,30.79
2018-07-27T18:49:09.392Z,30.74
2018-07-27T18:52:07.416Z,30.66
2018-07-27T18:55:05.492Z,30.58
2018-07-27T18:58:02.858Z,30.53
2018-07-27T19:01:00.588Z,30.40
2018-07-27T19:03:57.673Z,30.35
2018-07-27T19:06:54.766Z,30.16
2018-07-27T19:09:52.246Z,30.11
2018-07-27T19:12:49.686Z,30.01
2018-07-27T19:15:47.571Z,29.92
2018-07-27T19:18:44.690Z,29.80
2018-07-27T19:21:42.200Z,29.67
2018-07-27T19:24:39.888Z,29.58
2018-07-27T19:27:37.359Z,29.45
2018-07-27T19:30:35.104Z,29.32
2018-07-27T19:33:32.381Z,29.19
2018-07-27T19:36:29.700Z,29.13
2018-07-27T19:39:29.148Z,29.10
2018-07-27T19:42:26.283Z,29.06
2018-07-27T19:45:24.374Z,29.13
2018-07-27T19:48:21.714Z,29.03
2018-07-27T19:51:19.587Z,28.94
2018-07-27T19:54:17.523Z,28.85
2018-07-27T19:57:14.924Z,28.81
2018-07-27T20:00:12.348Z,28.79
2018-07-27T20:03:10.447Z,28.76
2018-07-27T20:06:08.059Z,28.66
2018-07-27T20:09:05.276Z,28.57
2018-07-27T20:12:03.176Z,28.51
2018-07-27T20:15:01.041Z,28.39
2018-07-27T20:17:59.084Z,28.44
2018-07-27T20:20:56.264Z,28.28
2018-07-27T20:23:53.540Z,28.24
2018-07-27T20:26:51.276Z,28.19
2018-07-27T20:29:48.952Z,28.10
2018-07-27T20:32:46.739Z,27.94
2018-07-27T20:35:44.910Z,27.91
2018-07-27T20:38:42.356Z,27.82
2018-07-27T20:41:40.053Z,27.73
2018-07-27T20:44:37.751Z,27.63
2018-07-27T20:47:35.496Z,27.55
2018-07-27T20:50:33.067Z,27.49
2018-07-27T20:53:30.847Z,27.42
2018-07-27T20:56:28.892Z,27.35
2018-07-27T20:59:26.015Z,27.28
2018-07-27T21:02:23.943Z,27.23
2018-07-27T21:05:21.955Z,27.15
2018-07-27T21:08:19.238Z,27.06
2018-07-27T21:11:17.473Z,26.99
2018-07-27T21:14:14.552Z,26.91
2018-07-27T21:17:12.561Z,26.75
2018-07-27T21:20:09.794Z,26.69
2018-07-27T21:23:07.844Z,26.67
2018-07-27T21:26:05.903Z,26.67
2018-07-27T21:29:03.049Z,26.52
2018-07-27T21:32:00.995Z,26.52
2018-07-27T21:34:58.250Z,26.44
2018-07-27T21:37:56.330Z,26.37
2018-07-27T21:40:54.318Z,26.33
2018-07-27T21:43:51.571Z,26.23
2018-07-27T21:46:49.730Z,26.08
2018-07-27T21:49:47.087Z,26.05
2018-07-27T21:52:44.344Z,25.99
2018-07-27T21:55:42.437Z,25.78
2018-07-27T21:58:40.583Z,25.66
2018-07-27T22:01:37.749Z,25.67
2018-07-27T22:04:35.948Z,25.73
2018-07-27T22:07:33.352Z,25.76
2018-07-27T22:10:32.179Z,25.77
2018-07-27T22:13:30.320Z,25.76
2018-07-27T22:16:28.165Z,25.69
2018-07-27T22:19:26.191Z,25.60
2018-07-27T22:22:24.208Z,25.58
2018-07-27T22:25:22.372Z,25.46
2018-07-27T22:28:20.256Z,25.47
2018-07-27T22:31:18.297Z,25.41
2018-07-27T22:34:16.456Z,25.34
2018-07-27T22:37:13.484Z,25.28
2018-07-27T22:40:11.574Z,25.28
2018-07-27T22:43:09.447Z,25.16
2018-07-27T22:46:07.484Z,25.10
2018-07-27T22:49:05.671Z,25.13
2018-07-27T22:52:03.539Z,25.20
2018-07-27T22:55:00.802Z,25.16
2018-07-27T22:57:58.851Z,25.11
2018-07-27T23:00:56.181Z,25.06
2018-07-27T23:03:53.169Z,25.00
2018-07-27T23:06:50.362Z,24.98
2018-07-27T23:09:48.355Z,24.95
2018-07-27T23:12:46.080Z,24.94
2018-07-27T23:15:43.973Z,24.85
2018-07-27T23:18:41.409Z,24.84
2018-07-27T23:21:38.919Z,24.80
2018-07-27T23:24:36.989Z,24.72
2018-07-27T23:27:34.911Z,24.75
2018-07-27T23:30:32.793Z,24.76
2018-07-27T23:33:29.843Z,24.68
2018-07-27T23:36:27.752Z,24.71
2018-07-27T23:39:25.643Z,24.67
2018-07-27T23:42:23.402Z,24.67
2018-07-27T23:45:22.187Z,24.62
2018-07-27T23:48:20.032Z,24.54
2018-07-27T23:51:18.000Z,24.53
2018-07-27T23:54:15.868Z,24.51
2018-07-27T23:57:13.962Z,24.53
